Time;durP1;ratioP1;P1;durP2;ratioP2;P2;SDS_P1;SDS_P2;PMS_P1;PMS_P2;Temp;Humidity;BMP_temperature;BMP_pressure;BME280_temperature;BME280_humidity;BME280_pressure;Samples;Min_cycle;Max_cycle;Signal;HPM_P1;HPM_P2
2023/05/07 00:01:37;;;;;;;9.55;6.15;;;13.60;94.30;;;;;;6186046;22;87383;-78
2023/05/07 00:04:03;;;;;;;8.50;6.85;;;13.60;94.40;;;;;;6158552;22;91920;-78
2023/05/07 00:06:29;;;;;;;7.35;6.07;;;13.60;94.90;;;;;;6185380;22;88233;-78
2023/05/07 00:08:56;;;;;;;7.68;6.15;;;13.60;94.80;;;;;;6186111;22;88286;-78
2023/05/07 00:11:22;;;;;;;7.30;5.78;;;13.60;94.60;;;;;;6185239;22;87481;-78
2023/05/07 00:13:48;;;;;;;8.27;5.53;;;13.70;94.80;;;;;;6185449;22;88463;-78
2023/05/07 00:16:14;;;;;;;9.38;6.68;;;13.70;94.50;;;;;;6158617;22;89313;-78
2023/05/07 00:18:40;;;;;;;9.90;7.00;;;13.80;94.60;;;;;;6185898;22;87415;-78
2023/05/07 00:21:05;;;;;;;8.02;6.10;;;13.70;94.50;;;;;;6159022;22;90727;-78
2023/05/07 00:23:31;;;;;;;9.57;5.50;;;13.80;94.40;;;;;;6158332;22;90699;-78
2023/05/07 00:25:56;;;;;;;11.70;6.50;;;13.80;94.60;;;;;;6158858;22;91367;-78
2023/05/07 00:28:22;;;;;;;13.73;7.03;;;13.80;94.90;;;;;;6187358;22;87749;-78
2023/05/07 00:30:48;;;;;;;11.05;7.55;;;13.80;94.70;;;;;;6187108;22;87576;-78
2023/05/07 00:33:13;;;;;;;13.38;7.18;;;13.90;94.90;;;;;;6187111;22;89081;-78
2023/05/07 00:35:39;;;;;;;8.32;6.68;;;13.90;94.90;;;;;;6186973;22;87693;-78
2023/05/07 00:38:05;;;;;;;9.00;7.00;;;13.90;94.70;;;;;;6187120;22;87060;-78
2023/05/07 00:40:30;;;;;;;8.85;6.97;;;13.90;95.20;;;;;;6187080;22;87385;-78
2023/05/07 00:42:57;;;;;;;9.65;7.10;;;13.90;95.10;;;;;;6187087;22;88544;-78
2023/05/07 00:45:26;;;;;;;8.38;7.20;;;13.90;95.00;;;;;;6159332;22;91487;-78
2023/05/07 00:47:55;;;;;;;9.18;7.00;;;13.90;95.10;;;;;;6187773;22;87523;-78
2023/05/07 00:50:21;;;;;;;8.32;6.78;;;13.90;95.10;;;;;;6187136;22;87253;-78
2023/05/07 00:52:46;;;;;;;12.10;6.65;;;13.90;94.80;;;;;;6159863;22;91663;-78
2023/05/07 00:55:14;;;;;;;9.88;6.55;;;13.90;94.80;;;;;;6159588;22;91483;-78
2023/05/07 00:57:43;;;;;;;11.80;7.47;;;13.90;94.80;;;;;;6186494;22;88345;-78
2023/05/07 01:00:10;;;;;;;8.73;7.40;;;13.90;95.00;;;;;;6188090;22;87535;-78
2023/05/07 01:02:36;;;;;;;11.57;7.63;;;13.90;95.10;;;;;;6159426;22;92213;-77
2023/05/07 01:05:05;;;;;;;8.35;6.65;;;13.90;95.10;;;;;;6187066;22;88139;-78
2023/05/07 01:07:32;;;;;;;9.82;6.85;;;13.90;95.10;;;;;;6187102;22;87395;-78
2023/05/07 01:09:58;;;;;;;7.18;6.47;;;14.00;94.70;;;;;;6186800;22;87664;-78
2023/05/07 01:12:24;;;;;;;12.15;6.97;;;14.00;94.70;;;;;;6186518;22;88455;-78
2023/05/07 01:14:50;;;;;;;9.32;5.90;;;14.00;94.70;;;;;;6188265;22;87441;-78
2023/05/07 01:17:17;;;;;;;8.20;6.68;;;14.00;94.60;;;;;;6187094;22;87526;-78
2023/05/07 01:19:42;;;;;;;13.13;7.80;;;14.00;94.70;;;;;;6186444;22;87556;-78
2023/05/07 01:22:11;;;;;;;10.52;7.43;;;14.00;95.00;;;;;;6186336;22;89988;-78
2023/05/07 01:24:37;;;;;;;9.60;7.30;;;14.00;94.90;;;;;;6186003;22;89128;-78
2023/05/07 01:27:03;;;;;;;9.52;7.60;;;13.90;94.60;;;;;;6160928;22;87150;-78
2023/05/07 01:29:29;;;;;;;9.52;6.80;;;14.00;94.80;;;;;;6159289;22;91000;-79
2023/05/07 01:31:59;;;;;;;11.13;8.10;;;14.00;94.80;;;;;;6186924;22;88340;-78
2023/05/07 01:34:26;;;;;;;10.68;7.95;;;13.90;94.80;;;;;;6159299;22;89660;-78
2023/05/07 01:36:55;;;;;;;9.23;7.25;;;13.90;94.80;;;;;;6159741;22;87472;-78
2023/05/07 01:39:24;;;;;;;10.30;7.82;;;13.90;94.60;;;;;;6160548;22;90263;-78
2023/05/07 01:41:50;;;;;;;11.35;7.70;;;13.90;94.70;;;;;;6187399;22;88208;-78
2023/05/07 01:44:18;;;;;;;8.13;6.95;;;13.90;94.70;;;;;;6186586;22;88277;-78
2023/05/07 01:46:44;;;;;;;10.15;7.00;;;13.80;94.40;;;;;;6185443;22;88538;-78
2023/05/07 01:49:10;;;;;;;10.55;7.68;;;13.80;94.60;;;;;;6186417;22;87877;-78
2023/05/07 01:51:36;;;;;;;9.85;6.85;;;13.80;94.40;;;;;;6186797;22;89074;-78
2023/05/07 01:54:02;;;;;;;11.23;8.38;;;13.80;94.40;;;;;;6187473;22;88257;-78
2023/05/07 01:56:27;;;;;;;7.78;6.15;;;13.80;94.70;;;;;;6184374;22;87495;-78
2023/05/07 01:58:53;;;;;;;10.48;7.00;;;13.80;94.40;;;;;;6159502;22;89917;-78
2023/05/07 02:01:19;;;;;;;9.52;7.95;;;13.80;94.20;;;;;;6186461;22;88651;-78
2023/05/07 02:03:44;;;;;;;12.93;8.95;;;13.70;94.10;;;;;;6185392;22;90456;-78
2023/05/07 02:06:10;;;;;;;10.77;8.32;;;13.70;94.50;;;;;;6187932;22;87499;-78
2023/05/07 02:08:36;;;;;;;13.40;8.20;;;13.70;94.50;;;;;;6186942;22;87490;-78
2023/05/07 02:11:02;;;;;;;10.00;8.27;;;13.70;94.60;;;;;;6185806;22;89517;-78
2023/05/07 02:13:32;;;;;;;11.98;8.45;;;13.70;94.70;;;;;;6186482;22;89960;-78
2023/05/07 02:15:58;;;;;;;12.25;9.45;;;13.70;94.90;;;;;;6187087;22;88512;-78
2023/05/07 02:18:24;;;;;;;13.73;9.15;;;13.80;94.90;;;;;;6186890;22;87629;-78
2023/05/07 02:20:50;;;;;;;11.95;8.63;;;13.70;94.90;;;;;;6187207;22;88947;-78
2023/05/07 02:23:15;;;;;;;11.93;8.35;;;13.70;94.70;;;;;;6186450;22;89650;-78
2023/05/07 02:25:41;;;;;;;12.00;8.52;;;13.80;94.80;;;;;;6186751;22;87058;-78
2023/05/07 02:28:06;;;;;;;9.63;7.80;;;13.80;94.70;;;;;;6186588;22;87552;-78
2023/05/07 02:30:32;;;;;;;9.02;6.78;;;13.80;94.60;;;;;;6159762;22;91510;-77
2023/05/07 02:32:58;;;;;;;12.55;8.70;;;13.80;94.60;;;;;;6187058;22;88512;-78
2023/05/07 02:35:25;;;;;;;16.85;9.27;;;13.80;94.60;;;;;;6186219;22;88907;-78
2023/05/07 02:37:50;;;;;;;11.25;8.35;;;13.80;94.80;;;;;;6187397;22;87399;-78
2023/05/07 02:40:16;;;;;;;9.95;8.02;;;13.80;95.00;;;;;;6186661;22;89265;-78
2023/05/07 02:42:42;;;;;;;11.95;7.43;;;13.80;94.80;;;;;;6159464;22;91745;-78
2023/05/07 02:45:08;;;;;;;11.13;8.45;;;13.80;94.70;;;;;;6187117;22;87268;-79
2023/05/07 02:47:34;;;;;;;9.85;8.48;;;13.80;94.70;;;;;;6186167;22;87554;-78
2023/05/07 02:49:59;;;;;;;11.32;8.43;;;13.80;94.90;;;;;;6184236;22;90289;-78
2023/05/07 02:52:25;;;;;;;10.98;8.63;;;13.80;94.70;;;;;;6186849;22;88820;-78
2023/05/07 02:54:51;;;;;;;9.70;8.50;;;13.80;94.60;;;;;;6187293;22;86984;-78
2023/05/07 02:57:16;;;;;;;14.85;10.40;;;13.80;94.60;;;;;;6187268;22;87519;-78
2023/05/07 02:59:42;;;;;;;13.35;9.75;;;13.80;94.80;;;;;;6185139;22;89964;-78
2023/05/07 03:02:08;;;;;;;12.52;9.20;;;13.90;94.90;;;;;;6184472;22;89839;-78
2023/05/07 03:04:34;;;;;;;12.85;8.75;;;13.80;94.70;;;;;;6183837;22;87406;-78
2023/05/07 03:06:59;;;;;;;12.25;9.95;;;13.80;94.80;;;;;;6156593;22;89054;-78
2023/05/07 03:09:25;;;;;;;15.45;9.95;;;13.80;95.20;;;;;;6158678;22;90177;-78
2023/05/07 03:11:51;;;;;;;17.25;10.35;;;13.80;95.30;;;;;;6188659;22;89087;-78
2023/05/07 03:14:17;;;;;;;12.35;9.88;;;13.80;95.30;;;;;;6185276;22;87388;-78
2023/05/07 03:16:43;;;;;;;14.23;9.45;;;13.80;95.20;;;;;;6182477;22;87389;-78
2023/05/07 03:19:08;;;;;;;13.07;9.05;;;13.80;95.10;;;;;;6181869;22;87643;-78
2023/05/07 03:21:34;;;;;;;11.00;9.05;;;13.80;95.00;;;;;;6181572;22;88795;-78
2023/05/07 03:24:00;;;;;;;15.38;9.27;;;13.80;94.80;;;;;;6183226;22;88458;-78
2023/05/07 03:26:26;;;;;;;16.38;9.50;;;13.80;95.00;;;;;;6184888;22;87554;-78
2023/05/07 03:28:52;;;;;;;15.38;10.00;;;13.80;95.20;;;;;;6185855;22;88621;-78
2023/05/07 03:31:21;;;;;;;14.25;9.02;;;13.80;95.10;;;;;;6184520;22;88018;-79
2023/05/07 03:33:57;;;;;;;11.23;9.57;;;13.80;95.20;;;;;;6185822;22;87265;-78
2023/05/07 03:36:23;;;;;;;12.07;9.50;;;13.80;95.20;;;;;;6185443;22;87486;-78
2023/05/07 03:38:49;;;;;;;9.82;8.23;;;13.80;95.30;;;;;;6186751;22;88269;-79
2023/05/07 03:41:15;;;;;;;12.20;8.90;;;13.80;95.20;;;;;;6185844;22;87041;-78
2023/05/07 03:43:41;;;;;;;14.90;10.13;;;13.80;95.10;;;;;;6185295;22;87344;-78
2023/05/07 03:46:07;;;;;;;14.35;10.38;;;13.80;95.10;;;;;;6184299;22;87563;-78
2023/05/07 03:48:33;;;;;;;14.57;10.32;;;13.80;95.20;;;;;;6183860;22;89130;-78
2023/05/07 03:50:59;;;;;;;13.55;9.73;;;13.80;95.20;;;;;;6184785;22;89349;-78
2023/05/07 03:53:25;;;;;;;19.50;10.40;;;13.80;95.20;;;;;;6185875;22;87841;-78
2023/05/07 03:55:50;;;;;;;15.98;10.02;;;13.80;95.40;;;;;;6183490;22;90022;-79
2023/05/07 03:58:16;;;;;;;13.63;8.90;;;13.80;95.50;;;;;;6185003;22;88601;-78
2023/05/07 04:00:42;;;;;;;12.43;9.23;;;13.80;95.30;;;;;;6186562;22;87528;-78
2023/05/07 04:03:08;;;;;;;13.63;10.25;;;13.80;95.00;;;;;;6187229;22;87548;-79
2023/05/07 04:05:33;;;;;;;11.02;9.82;;;13.80;95.10;;;;;;6186819;22;86768;-78
2023/05/07 04:08:00;;;;;;;11.02;8.85;;;13.90;95.30;;;;;;6159245;22;92047;-78
2023/05/07 04:10:26;;;;;;;12.57;10.02;;;13.90;95.00;;;;;;6187101;22;88421;-78
2023/05/07 04:12:51;;;;;;;15.20;11.13;;;13.90;95.10;;;;;;6185605;22;88327;-79
2023/05/07 04:15:17;;;;;;;13.90;10.73;;;13.90;95.10;;;;;;6187236;22;87963;-78
2023/05/07 04:17:43;;;;;;;13.18;9.73;;;13.90;95.30;;;;;;6185786;22;88043;-78
2023/05/07 04:20:16;;;;;;;14.15;11.10;;;13.90;95.30;;;;;;6186288;22;87270;-79
2023/05/07 04:22:42;;;;;;;;;;;13.90;95.20;;;;;;6187059;22;87109;-78
2023/05/07 04:25:11;;;;;;;15.00;10.13;;;13.90;95.20;;;;;;6188094;22;87511;-79
2023/05/07 04:27:37;;;;;;;12.88;10.68;;;13.90;95.20;;;;;;6158491;22;91503;-78
2023/05/07 04:30:03;;;;;;;11.77;8.93;;;13.90;95.10;;;;;;6186843;22;88291;-78
2023/05/07 04:32:30;;;;;;;11.93;9.43;;;14.00;95.00;;;;;;6186193;22;87345;-78
2023/05/07 04:34:56;;;;;;;14.35;10.35;;;14.00;94.80;;;;;;6186292;22;94652;-78
2023/05/07 04:37:22;;;;;;;14.35;10.23;;;14.00;95.00;;;;;;6185246;22;89045;-78
2023/05/07 04:39:48;;;;;;;12.00;10.13;;;14.00;95.10;;;;;;6185235;22;89220;-78
2023/05/07 04:42:17;;;;;;;12.95;10.07;;;14.00;95.00;;;;;;6186830;22;87543;-78
2023/05/07 04:44:44;;;;;;;15.52;10.70;;;14.10;95.00;;;;;;6185221;22;87512;-78
2023/05/07 04:47:10;;;;;;;15.00;11.13;;;14.10;95.20;;;;;;6185769;22;87450;-78
2023/05/07 04:49:36;;;;;;;12.45;9.82;;;14.10;95.10;;;;;;6185723;22;87937;-78
2023/05/07 04:52:03;;;;;;;13.45;10.65;;;14.10;94.90;;;;;;6186907;22;87442;-78
2023/05/07 04:54:28;;;;;;;13.90;10.45;;;14.20;95.00;;;;;;6143928;22;90152;-78
2023/05/07 04:56:54;;;;;;;16.55;11.70;;;14.20;95.10;;;;;;6184590;22;89164;-78
2023/05/07 04:59:20;;;;;;;15.43;11.30;;;14.20;95.10;;;;;;6185881;22;88869;-78
2023/05/07 05:01:45;;;;;;;12.02;9.88;;;14.30;95.10;;;;;;6183197;22;90637;-78
2023/05/07 05:04:11;;;;;;;13.73;10.13;;;14.40;95.00;;;;;;6186722;22;87272;-78
2023/05/07 05:06:46;;;;;;;11.70;9.80;;;14.40;94.90;;;;;;6185747;22;88022;-78
2023/05/07 05:09:11;;;;;;;10.73;9.10;;;14.40;94.80;;;;;;6187037;22;88626;-78
2023/05/07 05:11:37;;;;;;;16.55;9.63;;;14.50;94.70;;;;;;6186213;22;87428;-78
2023/05/07 05:14:03;;;;;;;13.23;9.82;;;14.60;94.60;;;;;;6187014;22;87379;-78
2023/05/07 05:16:28;;;;;;;18.13;11.50;;;14.60;94.40;;;;;;6159252;22;91686;-78
2023/05/07 05:18:54;;;;;;;13.98;11.27;;;14.70;94.60;;;;;;6186045;22;88249;-78
2023/05/07 05:21:20;;;;;;;16.58;12.13;;;14.70;94.60;;;;;;6186758;22;87313;-78
2023/05/07 05:23:46;;;;;;;13.18;10.75;;;14.70;94.50;;;;;;6185448;22;91884;-78
2023/05/07 05:26:12;;;;;;;16.02;11.23;;;14.70;94.30;;;;;;6184328;22;89101;-78
2023/05/07 05:28:40;;;;;;;14.80;10.13;;;14.80;94.20;;;;;;6185559;22;89710;-78
2023/05/07 05:31:06;;;;;;;12.98;11.07;;;14.80;94.10;;;;;;6185813;22;87377;-78
2023/05/07 05:33:33;;;;;;;17.17;10.65;;;14.90;94.20;;;;;;6196431;22;88075;-81
2023/05/07 05:35:59;;;;;;;10.25;8.95;;;15.00;94.00;;;;;;6204332;22;86928;-81
2023/05/07 05:38:25;;;;;;;12.88;10.32;;;15.00;93.70;;;;;;6176508;22;88741;-80
2023/05/07 05:40:51;;;;;;;13.35;10.93;;;15.10;93.80;;;;;;6169360;22;87068;-81
2023/05/07 05:43:16;;;;;;;13.82;10.10;;;15.20;93.80;;;;;;6170575;22;89418;-81
2023/05/07 05:45:42;;;;;;;13.18;10.25;;;15.30;93.80;;;;;;6178637;22;88930;-81
2023/05/07 05:48:08;;;;;;;10.95;9.45;;;15.40;93.70;;;;;;6189628;22;87050;-84
2023/05/07 05:50:36;;;;;;;11.45;10.05;;;15.40;93.60;;;;;;6187282;22;88326;-83
2023/05/07 05:53:02;;;;;;;11.05;9.52;;;15.50;93.40;;;;;;6159040;22;90114;-83
2023/05/07 05:55:29;;;;;;;12.55;9.75;;;15.60;93.30;;;;;;6161218;22;90061;-85
2023/05/07 05:57:54;;;;;;;11.60;9.85;;;15.70;93.20;;;;;;6159069;22;90029;-85
2023/05/07 06:00:22;;;;;;;10.60;8.98;;;15.70;93.00;;;;;;6187708;22;87540;-84
2023/05/07 06:02:48;;;;;;;11.85;9.75;;;15.80;92.70;;;;;;6159650;22;93900;-84
2023/05/07 06:05:14;;;;;;;12.18;9.32;;;15.90;92.70;;;;;;6173017;22;88181;-84
2023/05/07 06:07:40;;;;;;;13.75;9.65;;;16.00;92.70;;;;;;6170324;22;88280;-85
2023/05/07 06:10:06;;;;;;;12.27;9.30;;;16.00;92.70;;;;;;6185399;22;87536;-84
2023/05/07 06:12:32;;;;;;;15.60;9.63;;;16.20;92.50;;;;;;6184780;22;88191;-83
2023/05/07 06:14:58;;;;;;;11.57;9.48;;;16.30;92.30;;;;;;6158055;22;92282;-85
2023/05/07 06:17:23;;;;;;;11.50;9.60;;;16.40;92.20;;;;;;6157186;22;91969;-82
2023/05/07 06:19:49;;;;;;;11.57;9.60;;;16.50;92.10;;;;;;6184841;22;86965;-84
2023/05/07 06:22:15;;;;;;;10.80;8.98;;;16.60;91.90;;;;;;6156846;22;88967;-84
2023/05/07 06:24:40;;;;;;;10.30;8.68;;;16.70;92.00;;;;;;6156881;22;90841;-85
2023/05/07 06:27:06;;;;;;;13.98;9.55;;;16.90;92.00;;;;;;6157770;22;90715;-84
2023/05/07 06:29:33;;;;;;;13.57;9.02;;;17.00;91.80;;;;;;6156684;22;87417;-85
2023/05/07 06:32:19;;;;;;;10.20;8.10;;;17.20;91.60;;;;;;6157115;22;90494;-84
2023/05/07 06:34:44;;;;;;;12.43;8.63;;;17.30;91.40;;;;;;6182155;22;88507;-82
2023/05/07 06:37:10;;;;;;;13.13;7.88;;;17.40;91.20;;;;;;6155321;22;90364;-84
2023/05/07 06:39:36;;;;;;;10.48;7.78;;;17.50;91.10;;;;;;6154644;22;88335;-85
2023/05/07 06:42:02;;;;;;;10.70;7.97;;;17.50;90.60;;;;;;6155251;22;90012;-79
2023/05/07 06:44:28;;;;;;;7.93;7.13;;;17.60;90.80;;;;;;6152770;22;90662;-84
2023/05/07 06:46:53;;;;;;;10.02;7.07;;;17.70;90.80;;;;;;6098640;22;1307559;-80
2023/05/07 06:49:19;;;;;;;9.82;7.10;;;17.70;90.30;;;;;;6181986;22;87538;-80
2023/05/07 06:51:45;;;;;;;10.63;7.18;;;17.70;90.30;;;;;;6154871;22;90439;-79
2023/05/07 06:54:10;;;;;;;9.63;6.90;;;17.70;89.80;;;;;;6182706;22;87556;-79
2023/05/07 06:56:36;;;;;;;9.65;6.30;;;17.80;89.60;;;;;;6182542;22;87155;-80
2023/05/07 06:59:03;;;;;;;11.77;7.68;;;17.70;89.00;;;;;;6156814;22;87381;-85
2023/05/07 07:01:29;;;;;;;9.73;6.53;;;17.80;89.10;;;;;;6158389;22;90529;-81
2023/05/07 07:03:54;;;;;;;7.40;5.40;;;17.90;89.90;;;;;;6155162;22;92262;-82
2023/05/07 07:06:20;;;;;;;12.00;6.57;;;18.00;88.70;;;;;;6157152;22;90931;-81
2023/05/07 07:08:46;;;;;;;7.85;5.78;;;18.10;87.50;;;;;;6183981;22;87442;-86
2023/05/07 07:11:12;;;;;;;7.18;5.80;;;18.20;87.90;;;;;;6184282;22;88130;-88
2023/05/07 07:13:37;;;;;;;8.55;5.70;;;18.40;87.90;;;;;;6157477;22;92074;-87
2023/05/07 07:16:03;;;;;;;8.65;5.63;;;18.60;86.00;;;;;;6159664;22;91130;-91
2023/05/07 07:18:29;;;;;;;8.43;5.25;;;18.70;86.70;;;;;;6160055;22;87205;-85
2023/05/07 07:20:55;;;;;;;8.25;5.05;;;18.90;84.60;;;;;;6160636;22;89633;-84
2023/05/07 07:23:20;;;;;;;10.50;5.90;;;18.90;81.90;;;;;;6159468;22;91161;-84
2023/05/07 07:25:46;;;;;;;6.80;5.38;;;18.80;81.30;;;;;;6159188;22;91622;-82
2023/05/07 07:28:14;;;;;;;12.13;6.00;;;18.90;82.70;;;;;;6186387;22;87916;-83
2023/05/07 07:30:39;;;;;;;9.95;5.95;;;18.90;82.20;;;;;;6158993;22;90124;-83
2023/05/07 07:33:05;;;;;;;7.57;5.80;;;18.90;81.80;;;;;;6159288;22;91201;-81
2023/05/07 07:35:33;;;;;;;9.48;5.45;;;18.90;83.50;;;;;;6159521;22;91045;-82
2023/05/07 07:37:59;;;;;;;7.15;4.70;;;19.10;82.80;;;;;;6187478;22;87138;-83
2023/05/07 07:40:25;;;;;;;13.10;5.78;;;19.30;84.40;;;;;;6160147;22;90247;-83
2023/05/07 07:42:54;;;;;;;11.30;6.13;;;19.60;84.10;;;;;;6160274;22;92070;-84
2023/05/07 07:45:20;;;;;;;8.63;5.10;;;19.70;79.80;;;;;;6187608;22;88313;-81
2023/05/07 07:47:46;;;;;;;7.50;5.18;;;19.90;79.30;;;;;;6186181;22;87383;-91
2023/05/07 07:50:12;;;;;;;8.25;4.70;;;20.00;77.50;;;;;;6158857;22;89850;-89
2023/05/07 07:52:38;;;;;;;6.95;4.50;;;20.10;75.80;;;;;;6159695;22;91918;-80
2023/05/07 07:55:04;;;;;;;9.18;4.40;;;20.00;77.50;;;;;;6186535;22;87725;-79
2023/05/07 07:57:30;;;;;;;6.40;5.00;;;20.20;79.60;;;;;;6185020;22;87517;-81
2023/05/07 07:59:56;;;;;;;10.00;5.60;;;20.40;75.90;;;;;;6159925;22;87953;-79
2023/05/07 08:02:21;;;;;;;7.00;4.40;;;20.70;74.00;;;;;;6186437;22;89005;-80
2023/05/07 08:04:47;;;;;;;7.47;4.50;;;20.60;73.60;;;;;;6115856;22;88263;-80
2023/05/07 08:07:13;;;;;;;8.63;4.78;;;20.70;74.50;;;;;;6157722;22;88034;-80
2023/05/07 08:09:39;;;;;;;11.70;5.43;;;20.70;74.40;;;;;;6156155;22;90422;-80
2023/05/07 08:12:06;;;;;;;9.07;4.68;;;20.60;73.10;;;;;;6187622;22;88248;-80
2023/05/07 08:14:32;;;;;;;7.68;5.22;;;20.70;75.80;;;;;;6186478;22;88654;-80
2023/05/07 08:16:58;;;;;;;10.55;4.70;;;21.00;73.30;;;;;;6186194;22;87983;-80
2023/05/07 08:19:24;;;;;;;9.10;3.40;;;21.20;71.40;;;;;;6159001;22;90622;-80
2023/05/07 08:21:50;;;;;;;10.25;3.83;;;21.10;69.30;;;;;;6159061;22;91318;-79
2023/05/07 08:24:17;;;;;;;9.30;3.97;;;21.00;68.10;;;;;;6160469;22;90684;-81
2023/05/07 08:26:44;;;;;;;7.43;3.50;;;20.90;69.10;;;;;;6160015;22;87091;-80
2023/05/07 08:29:12;;;;;;;5.82;3.58;;;20.70;70.70;;;;;;6186399;22;87739;-79
2023/05/07 08:31:41;;;;;;;9.20;4.50;;;20.70;71.70;;;;;;6157749;22;91624;-80
2023/05/07 08:34:07;;;;;;;7.00;3.47;;;20.80;70.30;;;;;;6159404;22;91237;-79
2023/05/07 08:36:32;;;;;;;7.32;3.20;;;21.00;70.30;;;;;;6186300;22;87595;-80
2023/05/07 08:38:59;;;;;;;5.82;3.03;;;21.10;70.50;;;;;;6187527;22;87529;-80
2023/05/07 08:41:24;;;;;;;6.60;3.67;;;21.20;67.60;;;;;;6185150;22;88941;-80
2023/05/07 08:43:51;;;;;;;11.48;3.92;;;21.10;68.50;;;;;;6182794;22;89704;-80
2023/05/07 08:46:21;;;;;;;7.00;3.80;;;21.10;68.40;;;;;;6181163;22;87404;-81
2023/05/07 08:48:53;;;;;;;8.85;3.65;;;21.20;69.20;;;;;;6155960;22;90130;-80
2023/05/07 08:51:20;;;;;;;8.40;4.00;;;21.30;69.40;;;;;;6185389;22;91923;-80
2023/05/07 08:53:50;;;;;;;8.07;4.18;;;21.50;67.10;;;;;;6186163;22;92620;-81
2023/05/07 08:56:17;;;;;;;6.30;3.45;;;21.50;67.30;;;;;;6186429;22;87672;-80
2023/05/07 08:58:44;;;;;;;6.63;3.92;;;21.40;66.60;;;;;;6159197;22;88831;-80
2023/05/07 09:01:15;;;;;;;9.18;4.78;;;21.50;68.30;;;;;;6186183;22;87559;-82
2023/05/07 09:03:43;;;;;;;10.27;4.68;;;21.60;67.80;;;;;;6186431;22;87986;-81
2023/05/07 09:06:09;;;;;;;6.60;4.40;;;21.50;67.70;;;;;;6187354;22;88337;-81
2023/05/07 09:08:36;;;;;;;9.57;5.35;;;21.20;67.60;;;;;;6158929;22;90004;-79
2023/05/07 09:11:02;;;;;;;8.27;4.88;;;21.30;69.20;;;;;;6186515;22;89038;-79
2023/05/07 09:13:29;;;;;;;10.98;5.85;;;21.30;69.40;;;;;;6185722;22;88067;-79
2023/05/07 09:15:55;;;;;;;10.20;5.40;;;21.30;68.90;;;;;;6186333;22;87358;-83
2023/05/07 09:18:21;;;;;;;9.57;5.32;;;21.20;69.20;;;;;;6186183;22;87583;-82
2023/05/07 09:20:47;;;;;;;10.23;5.25;;;21.30;70.30;;;;;;6159911;22;89626;-81
2023/05/07 09:23:13;;;;;;;10.18;5.60;;;21.50;69.20;;;;;;6159628;22;90943;-82
2023/05/07 09:25:39;;;;;;;8.00;5.68;;;21.60;68.50;;;;;;6159445;22;87447;-80
2023/05/07 09:28:11;;;;;;;5.72;4.97;;;21.70;69.40;;;;;;6185832;22;87598;-81
2023/05/07 09:30:37;;;;;;;8.77;5.13;;;21.80;69.80;;;;;;6185585;22;89108;-81
2023/05/07 09:33:05;;;;;;;8.80;5.60;;;21.80;68.10;;;;;;6160184;22;89767;-81
2023/05/07 09:35:31;;;;;;;9.38;5.68;;;21.50;68.20;;;;;;6186795;22;87011;-82
2023/05/07 09:38:00;;;;;;;10.27;5.30;;;21.30;68.40;;;;;;6159792;22;88887;-81
2023/05/07 09:40:29;;;;;;;11.80;5.15;;;21.30;69.40;;;;;;6159437;22;91569;-81
2023/05/07 09:42:55;;;;;;;8.85;4.95;;;21.30;69.30;;;;;;6158722;22;90741;-82
2023/05/07 09:45:28;;;;;;;11.95;4.20;;;21.20;71.00;;;;;;6154396;22;87583;-81
2023/05/07 09:47:56;;;;;;;10.52;4.18;;;21.20;69.20;;;;;;6130317;22;89035;-81
2023/05/07 09:50:27;;;;;;;10.30;3.67;;;21.00;69.30;;;;;;6128981;22;89255;-82
2023/05/07 09:52:55;;;;;;;9.93;3.65;;;21.00;69.70;;;;;;6154679;22;87854;-81
2023/05/07 09:55:21;;;;;;;9.00;3.10;;;20.90;71.40;;;;;;6155252;22;88509;-81
2023/05/07 09:57:51;;;;;;;8.18;3.05;;;20.80;70.30;;;;;;6155904;22;87959;-81
2023/05/07 10:00:19;;;;;;;7.43;3.10;;;20.70;70.70;;;;;;6130247;22;91674;-81
2023/05/07 10:02:51;;;;;;;7.82;2.92;;;20.60;70.50;;;;;;6155131;22;88457;-80
2023/05/07 10:05:18;;;;;;;11.32;3.20;;;20.60;70.70;;;;;;6156245;22;87638;-78
2023/05/07 10:07:44;;;;;;;8.23;2.95;;;20.50;71.60;;;;;;6128839;22;90444;-78
2023/05/07 10:10:11;;;;;;;11.05;3.40;;;20.40;72.50;;;;;;6155915;22;87661;-79
2023/05/07 10:12:38;;;;;;;10.07;3.10;;;20.40;72.80;;;;;;6155842;22;88887;-84
2023/05/07 10:15:10;;;;;;;8.68;3.33;;;20.30;73.50;;;;;;6131434;22;87052;-88
2023/05/07 10:17:37;;;;;;;9.05;3.60;;;20.20;74.00;;;;;;6129029;22;89367;-79
2023/05/07 10:20:07;;;;;;;7.60;3.55;;;20.20;74.00;;;;;;6154765;22;89550;-77
2023/05/07 10:22:44;;;;;;;7.95;3.63;;;20.20;74.20;;;;;;6155247;22;87802;-78
2023/05/07 10:25:19;;;;;;;13.32;4.38;;;20.20;75.30;;;;;;6128496;22;87396;-78
2023/05/07 10:27:48;;;;;;;10.93;3.80;;;20.20;75.90;;;;;;6129335;22;88411;-79
2023/05/07 10:30:35;;;;;;;10.13;4.00;;;20.10;75.10;;;;;;6156837;22;89170;-79
2023/05/07 10:33:05;;;;;;;12.88;3.90;;;20.00;74.90;;;;;;6151243;22;94076;-80
2023/05/07 10:35:37;;;;;;;11.38;3.95;;;20.00;75.20;;;;;;6153690;22;87506;-81
2023/05/07 10:38:04;;;;;;;10.00;4.47;;;19.90;75.20;;;;;;6152726;22;87333;-79
2023/05/07 10:40:33;;;;;;;14.05;4.95;;;19.90;75.90;;;;;;6151879;22;87755;-79
2023/05/07 10:43:01;;;;;;;11.23;4.50;;;19.90;76.90;;;;;;6152567;22;87460;-80
2023/05/07 10:45:27;;;;;;;9.00;3.90;;;19.80;76.50;;;;;;6165222;22;88153;-80
2023/05/07 10:48:08;;;;;;;10.43;4.20;;;19.70;77.10;;;;;;6159833;22;88048;-82
2023/05/07 10:50:35;;;;;;;11.07;4.65;;;19.60;78.80;;;;;;6158913;22;90665;-81
2023/05/07 10:53:24;;;;;;;12.10;5.13;;;19.50;79.10;;;;;;6158549;22;89871;-79
2023/05/07 10:55:52;;;;;;;9.07;4.57;;;19.30;82.10;;;;;;6185540;22;87674;-80
2023/05/07 10:58:31;;;;;;;16.40;5.53;;;19.30;83.50;;;;;;6184405;22;87884;-80
2023/05/07 11:01:01;;;;;;;9.77;4.28;;;19.30;83.50;;;;;;6185798;22;87594;-80
2023/05/07 11:03:27;;;;;;;8.43;4.18;;;19.20;84.60;;;;;;6159380;22;91505;-80
2023/05/07 11:06:13;;;;;;;9.70;4.18;;;19.20;85.00;;;;;;6187522;22;87123;-80
2023/05/07 11:08:58;;;;;;;10.10;4.10;;;19.10;84.80;;;;;;6185403;22;87920;-80
2023/05/07 11:11:55;;;;;;;8.80;4.63;;;19.20;85.70;;;;;;6156851;22;92628;-80
2023/05/07 11:14:41;;;;;;;12.07;4.65;;;19.20;85.20;;;;;;6158824;22;90771;-78
2023/05/07 11:17:07;;;;;;;13.48;4.95;;;19.00;86.30;;;;;;6185726;22;87587;-79
2023/05/07 11:19:53;;;;;;;6.78;4.03;;;18.90;86.80;;;;;;6158507;22;90202;-80
2023/05/07 11:22:35;;;;;;;8.85;4.30;;;18.80;87.60;;;;;;6185938;22;88183;-86
2023/05/07 11:25:05;;;;;;;9.88;4.25;;;18.80;88.90;;;;;;6158699;22;90176;-85
2023/05/07 11:27:31;;;;;;;9.40;4.20;;;18.80;87.40;;;;;;6158166;22;87601;-77
2023/05/07 11:29:57;;;;;;;7.30;4.22;;;18.80;86.80;;;;;;6159861;22;89879;-78
2023/05/07 11:32:30;;;;;;;10.90;4.97;;;18.80;88.70;;;;;;6185058;22;88485;-77
2023/05/07 11:34:57;;;;;;;11.00;4.97;;;18.90;88.00;;;;;;6185601;22;88176;-77
2023/05/07 11:37:24;;;;;;;10.00;5.28;;;18.80;88.40;;;;;;6185785;22;87944;-78
2023/05/07 11:39:55;;;;;;;8.07;4.50;;;18.80;88.00;;;;;;6185608;22;87880;-77
2023/05/07 11:42:32;;;;;;;9.52;4.60;;;18.80;87.50;;;;;;6185786;22;87568;-77
2023/05/07 11:44:58;;;;;;;11.40;5.10;;;18.80;88.40;;;;;;6158497;22;91373;-77
2023/05/07 11:47:25;;;;;;;12.45;5.07;;;18.70;89.00;;;;;;6185674;22;87742;-78
2023/05/07 11:49:58;;;;;;;10.50;4.28;;;18.70;88.80;;;;;;6157788;22;88953;-77
2023/05/07 11:52:24;;;;;;;;;;;18.60;87.60;;;;;;6185569;22;87825;-77
2023/05/07 11:54:55;;;;;;;10.77;4.20;;;18.50;87.90;;;;;;6187629;22;88207;-77
2023/05/07 11:57:24;;;;;;;13.38;4.88;;;18.50;90.00;;;;;;6186498;22;87304;-78
2023/05/07 11:59:58;;;;;;;9.80;4.03;;;18.50;89.20;;;;;;6159040;22;94733;-78
2023/05/07 12:02:27;;;;;;;7.38;4.43;;;18.60;87.80;;;;;;6157678;22;90764;-78
2023/05/07 12:04:54;;;;;;;12.18;5.00;;;18.60;88.60;;;;;;6185601;22;89655;-77
2023/05/07 12:07:20;;;;;;;13.38;4.40;;;18.60;88.90;;;;;;6158171;22;87581;-77
2023/05/07 12:09:47;;;;;;;11.27;4.05;;;18.60;88.60;;;;;;6185716;22;87766;-77
2023/05/07 12:12:15;;;;;;;9.70;4.05;;;18.60;88.60;;;;;;6185979;22;87582;-77
2023/05/07 12:14:45;;;;;;;10.20;3.67;;;18.60;88.50;;;;;;6185558;22;88047;-77
2023/05/07 12:17:13;;;;;;;7.72;3.72;;;18.70;89.80;;;;;;6185807;22;87579;-77
2023/05/07 12:19:41;;;;;;;9.05;4.32;;;18.70;88.30;;;;;;6158689;22;90370;-77
2023/05/07 12:22:08;;;;;;;9.32;4.22;;;18.70;87.60;;;;;;6186436;22;88399;-77
2023/05/07 12:24:48;;;;;;;8.90;4.22;;;18.70;87.70;;;;;;6187073;22;88377;-76
2023/05/07 12:27:15;;;;;;;10.45;4.00;;;18.70;89.00;;;;;;6187427;22;88760;-77
2023/05/07 12:29:48;;;;;;;10.65;4.22;;;18.80;86.70;;;;;;6159552;22;90269;-77
2023/05/07 12:32:15;;;;;;;9.63;3.73;;;18.80;88.30;;;;;;6186662;22;88392;-77
2023/05/07 12:34:41;;;;;;;11.07;4.50;;;19.00;88.80;;;;;;6159696;22;90940;-77
2023/05/07 12:37:07;;;;;;;14.88;5.18;;;19.00;89.10;;;;;;6187105;22;87475;-78
2023/05/07 12:39:32;;;;;;;7.90;3.80;;;19.00;87.20;;;;;;6186339;22;87386;-77
2023/05/07 12:41:59;;;;;;;8.90;4.10;;;19.10;87.60;;;;;;6185884;22;89968;-77